Fram — LADA7 — position and weather

sailwx.info

Track history (hours):
 
Tides and Currents Weather Stations Pressure Air Temp Water Temp Dewpoint Dewpoint Depression Visibility Wind Speed Wind Dir Waves Ship Positions

Fram

Last reported at 2017-May-27 21:06 UTC. Time now 2017-May-29 11:32 UTC.
Position N 70°14' E 017°58'.

Length 114 m; draft 5.1 m.

Type: Ship. MMSI: 258932000.

Date/timePositionNaut miles runAvg speedWind from/ knotsBaromVisibWave heightAir tempDewpointWater temp
2017-May-27 21:06N 70°14' E 017°58'215.8
2017-May-27 21:00N 70°12' E 017°57'815.7
2017-May-27 20:30N 70°04' E 017°55'815.6
2017-May-27 20:00N 69°56' E 017°53'815.3
2017-May-27 19:30N 69°49' E 017°54'714.6
2017-May-27 19:00N 69°43' E 018°08'815.3
2017-May-27 18:30N 69°42' E 018°30'0 0.5
2017-May-27 18:00N 69°42' E 018°29'611.8
2017-May-27 17:30N 69°46' E 018°17'714.3
2017-May-27 17:00N 69°49' E 018°36'611.2
2017-May-27 16:30N 69°54' E 018°43'916.7
2017-May-27 16:00N 69°48' E 019°02'715.0
2017-May-27 15:30N 69°41' E 019°02'2 4.8
2017-May-27 14:59N 69°39' E 018°58'0 0.0
2017-May-27 14:29N 69°39' E 018°58'0 0.0
2017-May-27 13:29N 69°39' E 018°58'0 0.0
2017-May-27 12:59N 69°39' E 018°58'0 0.0
2017-May-27 12:29N 69°39' E 018°58'0 0.0
2017-May-27 11:59N 69°39' E 018°58'0 0.0
2017-May-27 11:29N 69°39' E 018°58'0 0.0
2017-May-27 10:59N 69°39' E 018°58'0 0.0
2017-May-27 10:29N 69°39' E 018°58'0 0.0
2017-May-27 09:59N 69°39' E 018°58'0 0.0
2017-May-27 09:29N 69°39' E 018°58'0 0.0
2017-May-27 08:59N 69°39' E 018°58'0 0.0
2017-May-27 08:29N 69°39' E 018°58'0 0.0
2017-May-27 07:59N 69°39' E 018°58'0 0.0
2017-May-27 07:29N 69°39' E 018°58'0 0.0
2017-May-27 06:59N 69°39' E 018°58'0 0.0
2017-May-27 06:29N 69°39' E 018°58'0 0.0
2017-May-27 06:00N 69°39' E 018°58'3 6.0
2017-May-27 05:29N 69°41' E 019°02'611.5
2017-May-27 04:59N 69°46' E 019°11'613.0
2017-May-27 04:30N 69°49' E 019°28'713.8
2017-May-27 04:00N 69°52' E 019°46'714.4
2017-May-27 03:30N 69°58' E 019°57'714.8
2017-May-27 03:00N 70°04' E 020°09'815.1
2017-May-27 02:30N 70°10' E 020°21'714.7
2017-May-27 02:00N 70°16' E 020°35'714.6
2017-May-27 01:30N 70°21' E 020°50'714.7
2017-May-27 01:00N 70°26' E 021°06'714.3
2017-May-27 00:30N 70°32' E 021°21'714.4
2017-May-27 00:00N 70°37' E 021°36'714.3
2017-May-26 23:30N 70°42' E 021°51'714.4
2017-May-26 23:00N 70°46' E 022°10'714.6
2017-May-26 22:30N 70°49' E 022°28'715.0
2017-May-26 22:00N 70°54' E 022°47'815.4
2017-May-26 21:30N 70°58' E 023°07'815.3
2017-May-26 21:00N 71°02' E 023°27'815.3
2017-May-26 20:30N 71°06' E 023°47'815.1
2017-May-26 20:01N 71°08' E 024°10'815.1
2017-May-26 19:30N 71°09' E 024°33'815.2
2017-May-26 19:00N 71°10' E 024°57'815.3
2017-May-26 18:30N 71°11' E 025°20'714.8
2017-May-26 18:00N 71°11' E 025°43'510.2
2017-May-26 17:30N 71°07' E 025°51'0 0.1
2017-May-26 16:58N 71°07' E 025°51'0 0.0
2017-May-26 16:28N 71°07' E 025°51'0 0.0
2017-May-26 15:58N 71°07' E 025°51'0 0.0
2017-May-26 15:28N 71°07' E 025°51'0 0.1
2017-May-26 14:55N 71°07' E 025°51'0 0.0
2017-May-26 14:28N 71°07' E 025°51'0 0.0
2017-May-26 13:28N 71°07' E 025°51'0 0.0
2017-May-26 12:58N 71°07' E 025°51'0 0.0
2017-May-26 12:28N 71°07' E 025°51'1 2.9
2017-May-26 12:00N 71°08' E 025°53'3 4.9
2017-May-26 11:30N 71°10' E 025°49'3 6.2
2017-May-26 11:00N 71°11' E 025°41'5 9.4
2017-May-26 10:30N 71°10' E 025°27'3 5.4
2017-May-26 10:00N 71°09' E 025°19'0 0.1
2017-May-26 09:29N 71°09' E 025°19'1 2.1
2017-May-26 09:00N 71°09' E 025°16'4 7.9
2017-May-26 08:30N 71°13' E 025°10'4 8.2
2017-May-26 08:00N 71°16' E 025°04'4 8.0
2017-May-26 07:29N 71°20' E 024°57'5 9.9
2017-May-26 06:59N 71°24' E 024°50'  
2017-May-18 21:45N 70°42' E 019°24'414.4
2017-May-18 21:30N 70°38' E 019°24'714.2
2017-May-18 21:00N 70°31' E 019°25'714.2
2017-May-18 20:30N 70°24' E 019°25'714.3
2017-May-18 20:00N 70°16' E 019°27'714.4
2017-May-18 19:30N 70°10' E 019°33'714.3
2017-May-18 19:00N 70°03' E 019°40'713.2
2017-May-18 18:30N 69°57' E 019°35'714.5
2017-May-18 18:00N 69°50' E 019°23'714.6
2017-May-18 17:30N 69°46' E 019°07'714.1
2017-May-18 17:00N 69°39' E 018°59'1 1.4
2017-May-18 16:28N 69°39' E 018°58'0 0.0
2017-May-18 15:58N 69°39' E 018°58'0 0.0
2017-May-18 15:28N 69°39' E 018°58'0 0.0
2017-May-18 14:58N 69°39' E 018°58'0 0.0
2017-May-18 14:28N 69°39' E 018°58'0 0.0
2017-May-18 13:28N 69°39' E 018°58'0 0.0
2017-May-18 12:58N 69°39' E 018°58'0 0.0
2017-May-18 12:28N 69°39' E 018°58'0 0.0
2017-May-18 11:58N 69°39' E 018°58'0 0.0
2017-May-18 11:28N 69°39' E 018°58'0 0.0
2017-May-18 10:58N 69°39' E 018°58'0 0.0
2017-May-18 10:28N 69°39' E 018°58'0 0.0
2017-May-18 09:58N 69°39' E 018°58'0 0.0
2017-May-18 09:28N 69°39' E 018°58'0 0.0
2017-May-18 08:58N 69°39' E 018°58'0 0.0
2017-May-18 08:28N 69°39' E 018°58'0 0.0
2017-May-18 07:58N 69°39' E 018°58'0 0.0
2017-May-18 07:28N 69°39' E 018°58'0 0.0
2017-May-18 06:58N 69°39' E 018°58'0 0.0
2017-May-18 06:28N 69°39' E 018°58'0 0.0
2017-May-18 05:58N 69°39' E 018°58'0 0.0
2017-May-18 05:28N 69°39' E 018°58'0 0.0
2017-May-18 05:00N 69°39' E 018°58'2 3.2
2017-May-18 04:30N 69°37' E 018°56'2 4.3
2017-May-18 04:00N 69°36' E 018°53'0 0.5
2017-May-18 03:30N 69°35' E 018°52'4 7.4
2017-May-18 03:00N 69°33' E 018°43'2 4.1
2017-May-18 02:30N 69°33' E 018°38'3 5.6
2017-May-18 02:00N 69°32' E 018°30'3 5.5
2017-May-18 01:30N 69°31' E 018°23'3 5.3
2017-May-18 01:00N 69°30' E 018°15'4 7.2
2017-May-18 00:30N 69°31' E 018°05'4 7.4
2017-May-18 00:00N 69°34' E 017°57'4 7.4
2017-May-17 23:30N 69°37' E 017°51'4 8.1
2017-May-17 23:00N 69°39' E 017°41'4 8.8
2017-May-17 22:30N 69°38' E 017°29'4 8.6
2017-May-17 22:00N 69°35' E 017°19'4 8.4
2017-May-17 21:30N 69°33' E 017°09'  
Track history (hours):
 
Tides and Currents Weather Stations Pressure Air Temp Water Temp Dewpoint Dewpoint Depression Visibility Wind Speed Wind Dir Waves Ship Positions

Fram

Last reported at 2017-May-27 21:06 UTC. Time now 2017-May-29 11:32 UTC.
Position N 70°14' E 017°58'.

Length 114 m; draft 5.1 m.

Type: Ship. MMSI: 258932000.

Date/timePositionNaut miles runAvg speedWind from/ knotsBaromVisibWave heightAir tempDewpointWater temp
2017-May-27 21:06N 70°14' E 017°58'215.8
2017-May-27 21:00N 70°12' E 017°57'815.7
2017-May-27 20:30N 70°04' E 017°55'815.6
2017-May-27 20:00N 69°56' E 017°53'815.3
2017-May-27 19:30N 69°49' E 017°54'714.6
2017-May-27 19:00N 69°43' E 018°08'815.3
2017-May-27 18:30N 69°42' E 018°30'0 0.5
2017-May-27 18:00N 69°42' E 018°29'611.8
2017-May-27 17:30N 69°46' E 018°17'714.3
2017-May-27 17:00N 69°49' E 018°36'611.2
2017-May-27 16:30N 69°54' E 018°43'916.7
2017-May-27 16:00N 69°48' E 019°02'715.0
2017-May-27 15:30N 69°41' E 019°02'2 4.8
2017-May-27 14:59N 69°39' E 018°58'0 0.0
2017-May-27 14:29N 69°39' E 018°58'0 0.0
2017-May-27 13:29N 69°39' E 018°58'0 0.0
2017-May-27 12:59N 69°39' E 018°58'0 0.0
2017-May-27 12:29N 69°39' E 018°58'0 0.0
2017-May-27 11:59N 69°39' E 018°58'0 0.0
2017-May-27 11:29N 69°39' E 018°58'0 0.0
2017-May-27 10:59N 69°39' E 018°58'0 0.0
2017-May-27 10:29N 69°39' E 018°58'0 0.0
2017-May-27 09:59N 69°39' E 018°58'0 0.0
2017-May-27 09:29N 69°39' E 018°58'0 0.0
2017-May-27 08:59N 69°39' E 018°58'0 0.0
2017-May-27 08:29N 69°39' E 018°58'0 0.0
2017-May-27 07:59N 69°39' E 018°58'0 0.0
2017-May-27 07:29N 69°39' E 018°58'0 0.0
2017-May-27 06:59N 69°39' E 018°58'0 0.0
2017-May-27 06:29N 69°39' E 018°58'0 0.0
2017-May-27 06:00N 69°39' E 018°58'3 6.0
2017-May-27 05:29N 69°41' E 019°02'611.5
2017-May-27 04:59N 69°46' E 019°11'613.0
2017-May-27 04:30N 69°49' E 019°28'713.8
2017-May-27 04:00N 69°52' E 019°46'714.4
2017-May-27 03:30N 69°58' E 019°57'714.8
2017-May-27 03:00N 70°04' E 020°09'815.1
2017-May-27 02:30N 70°10' E 020°21'714.7
2017-May-27 02:00N 70°16' E 020°35'714.6
2017-May-27 01:30N 70°21' E 020°50'714.7
2017-May-27 01:00N 70°26' E 021°06'714.3
2017-May-27 00:30N 70°32' E 021°21'714.4
2017-May-27 00:00N 70°37' E 021°36'714.3
2017-May-26 23:30N 70°42' E 021°51'714.4
2017-May-26 23:00N 70°46' E 022°10'714.6
2017-May-26 22:30N 70°49' E 022°28'715.0
2017-May-26 22:00N 70°54' E 022°47'815.4
2017-May-26 21:30N 70°58' E 023°07'815.3
2017-May-26 21:00N 71°02' E 023°27'815.3
2017-May-26 20:30N 71°06' E 023°47'815.1
2017-May-26 20:01N 71°08' E 024°10'815.1
2017-May-26 19:30N 71°09' E 024°33'815.2
2017-May-26 19:00N 71°10' E 024°57'815.3
2017-May-26 18:30N 71°11' E 025°20'714.8
2017-May-26 18:00N 71°11' E 025°43'510.2
2017-May-26 17:30N 71°07' E 025°51'0 0.1
2017-May-26 16:58N 71°07' E 025°51'0 0.0
2017-May-26 16:28N 71°07' E 025°51'0 0.0
2017-May-26 15:58N 71°07' E 025°51'0 0.0
2017-May-26 15:28N 71°07' E 025°51'0 0.1
2017-May-26 14:55N 71°07' E 025°51'0 0.0
2017-May-26 14:28N 71°07' E 025°51'0 0.0
2017-May-26 13:28N 71°07' E 025°51'0 0.0
2017-May-26 12:58N 71°07' E 025°51'0 0.0
2017-May-26 12:28N 71°07' E 025°51'1 2.9
2017-May-26 12:00N 71°08' E 025°53'3 4.9
2017-May-26 11:30N 71°10' E 025°49'3 6.2
2017-May-26 11:00N 71°11' E 025°41'5 9.4
2017-May-26 10:30N 71°10' E 025°27'3 5.4
2017-May-26 10:00N 71°09' E 025°19'0 0.1
2017-May-26 09:29N 71°09' E 025°19'1 2.1
2017-May-26 09:00N 71°09' E 025°16'4 7.9
2017-May-26 08:30N 71°13' E 025°10'4 8.2
2017-May-26 08:00N 71°16' E 025°04'4 8.0
2017-May-26 07:29N 71°20' E 024°57'5 9.9
2017-May-26 06:59N 71°24' E 024°50'  
2017-May-18 21:45N 70°42' E 019°24'414.4
2017-May-18 21:30N 70°38' E 019°24'714.2
2017-May-18 21:00N 70°31' E 019°25'714.2
2017-May-18 20:30N 70°24' E 019°25'714.3
2017-May-18 20:00N 70°16' E 019°27'714.4
2017-May-18 19:30N 70°10' E 019°33'714.3
2017-May-18 19:00N 70°03' E 019°40'713.2
2017-May-18 18:30N 69°57' E 019°35'714.5
2017-May-18 18:00N 69°50' E 019°23'714.6
2017-May-18 17:30N 69°46' E 019°07'714.1
2017-May-18 17:00N 69°39' E 018°59'1 1.4
2017-May-18 16:28N 69°39' E 018°58'0 0.0
2017-May-18 15:58N 69°39' E 018°58'0 0.0
2017-May-18 15:28N 69°39' E 018°58'0 0.0
2017-May-18 14:58N 69°39' E 018°58'0 0.0
2017-May-18 14:28N 69°39' E 018°58'0 0.0
2017-May-18 13:28N 69°39' E 018°58'0 0.0
2017-May-18 12:58N 69°39' E 018°58'0 0.0
2017-May-18 12:28N 69°39' E 018°58'0 0.0
2017-May-18 11:58N 69°39' E 018°58'0 0.0
2017-May-18 11:28N 69°39' E 018°58'0 0.0
2017-May-18 10:58N 69°39' E 018°58'0 0.0
2017-May-18 10:28N 69°39' E 018°58'0 0.0
2017-May-18 09:58N 69°39' E 018°58'0 0.0
2017-May-18 09:28N 69°39' E 018°58'0 0.0
2017-May-18 08:58N 69°39' E 018°58'0 0.0
2017-May-18 08:28N 69°39' E 018°58'0 0.0
2017-May-18 07:58N 69°39' E 018°58'0 0.0
2017-May-18 07:28N 69°39' E 018°58'0 0.0
2017-May-18 06:58N 69°39' E 018°58'0 0.0
2017-May-18 06:28N 69°39' E 018°58'0 0.0
2017-May-18 05:58N 69°39' E 018°58'0 0.0
2017-May-18 05:28N 69°39' E 018°58'0 0.0
2017-May-18 05:00N 69°39' E 018°58'2 3.2
2017-May-18 04:30N 69°37' E 018°56'2 4.3
2017-May-18 04:00N 69°36' E 018°53'0 0.5
2017-May-18 03:30N 69°35' E 018°52'4 7.4
2017-May-18 03:00N 69°33' E 018°43'2 4.1
2017-May-18 02:30N 69°33' E 018°38'3 5.6
2017-May-18 02:00N 69°32' E 018°30'3 5.5
2017-May-18 01:30N 69°31' E 018°23'3 5.3
2017-May-18 01:00N 69°30' E 018°15'4 7.2
2017-May-18 00:30N 69°31' E 018°05'4 7.4
2017-May-18 00:00N 69°34' E 017°57'4 7.4
2017-May-17 23:30N 69°37' E 017°51'4 8.1
2017-May-17 23:00N 69°39' E 017°41'4 8.8
2017-May-17 22:30N 69°38' E 017°29'4 8.6
2017-May-17 22:00N 69°35' E 017°19'4 8.4
2017-May-17 21:30N 69°33' E 017°09'  

Dump ship's entire track history